Billy Bishop Toronto City Centre Airport
CYTZ : now visible

Airfield :











YOU CAN JOIN US ON...

 
LOGIN :

Register | Disclaimer

   EN    FR    IT 

 









Legend :    VFR   Marginal VFR   IFR   Intensive IFR   Very Intensive IFR
Visi :
Ceiling :
>= 8 km
>= 3000ft
5 to 8 km
1000 to 3000 ft
1500m to 5 km
500 to 1000 ft
800 to 1500m
200 to 500 ft
< 800m
< 200 ft
Symbols :   Thunderstorms  Fog  Heavy snow  Heavy precipitations  Wind > 20 kt






- Airport Elevation : 251 ft
- IATA code : YTZ


CYTZ - Billy Bishop Toronto City Centre

CURRENT METAR :
  • 261709Z AUTO 02009G15KT 340V080 2 1/4SM -SN BKN012 BKN020 OVC034 M00/M02 A2990 RMK VIS VRB 1 1/4-3 SLP129

EXPIRED METARs :
  • 261638Z AUTO 03010G15KT 350V050 1 1/2SM -SN SCT010 OVC016 M00/M02 A2992 RMK VIS VRB 1-2 SLP135
  • 261611Z AUTO 04008KT 360V070 1 1/4SM -SN OVC014 M00/M02 A2992 RMK PRESFR SLP138
  • 261556Z AUTO 03007G16KT 2 1/4SM -SN BKN013 OVC019 00/M02 A2994 RMK SLP143
  • 261500Z AUTO 05013G19KT 4SM -SN BKN018 BKN027 OVC038 00/M02 A2993 RMK SLP139
  • 261423Z AUTO 05010G16KT 010V070 5SM -SN SCT014 BKN024 OVC042 M00/M02 A2995 RMK SLP145

TAF TAF CYTZ
Valid from the 26 at 14:00 until the 27 at 14:00 UTC


261338Z 2614/2714 04012G22KT 6SM -SN OVC015
TEMPO 2614/2622 11/2SM -SN BKN008 OVC015
PROB30 2614/2622 3/4SM -SN VV006
FM262200 05012G22KT 3/4SM -SN VV006
PROB30 2700/2704 1/2SM SN VV004
FM270800 32017G27KT 11/2SM -SN BLSN OVC008
FM271100 30018G30KT 21/2SM -SN BLSN OVC020
FM271300 29020G32KT 4SM BLSN BKN030 RMK FCST BASED ON AUTO OBS. NXT FCST BY 262000Z



MET'MAP, your aeronautical weather chart ! - Copyright ORBIFLY December 2007 - Disclaimer

ORBIFLY MET'MAP TEAM :

Programming & Development : Alexandra Zaïnal
Concept & original design : Baudouin d'Aumeries
Assistance for programming : Marc-Olivier Méhu
Technical & hardware support : Manuel Goepfert

Contact : metmap@orbifly.com




SOURCES & CREDITS :

   NOAA       Earth
Advisory